createdAt,value
2022-10-12T00:00:05.389Z,15.98
2022-10-12T00:02:41.002Z,16.16
2022-10-12T00:05:08.868Z,16.54
2022-10-12T00:07:36.705Z,16.33
2022-10-12T00:10:04.740Z,16.54
2022-10-12T00:12:32.706Z,16.31
2022-10-12T00:15:00.115Z,16.44
2022-10-12T00:17:27.461Z,16.31
2022-10-12T00:19:55.068Z,15.75
2022-10-12T00:22:22.576Z,16.16
2022-10-12T00:24:50.016Z,16.40
2022-10-12T00:27:17.718Z,15.86
2022-10-12T00:29:45.095Z,15.57
2022-10-12T00:32:12.455Z,15.45
2022-10-12T00:34:40.210Z,15.38
2022-10-12T00:37:07.599Z,15.18
2022-10-12T00:39:35.019Z,14.89
2022-10-12T00:42:02.628Z,15.02
2022-10-12T00:44:39.798Z,15.18
2022-10-12T00:47:28.697Z,15.41
2022-10-12T00:49:57.284Z,15.37
2022-10-12T00:52:29.521Z,15.59
2022-10-12T00:54:56.892Z,15.89
2022-10-12T00:57:24.636Z,15.33
2022-10-12T00:59:58.699Z,15.68
2022-10-12T01:02:27.379Z,15.64
2022-10-12T01:04:55.457Z,14.66
2022-10-12T01:07:23.022Z,15.09
2022-10-12T01:09:50.837Z,14.87
2022-10-12T01:12:18.700Z,15.63
2022-10-12T01:14:46.135Z,16.67
2022-10-12T01:17:29.756Z,17.60
2022-10-12T01:20:24.961Z,17.54
2022-10-12T01:23:14.360Z,18.08
2022-10-12T01:25:55.856Z,17.68
2022-10-12T01:28:34.365Z,16.55
2022-10-12T01:31:14.519Z,14.94
2022-10-12T01:33:46.293Z,14.95
2022-10-12T01:36:30.996Z,15.07
2022-10-12T01:39:19.598Z,15.57
2022-10-12T01:41:51.026Z,15.02
2022-10-12T01:44:22.360Z,15.41
2022-10-12T01:46:51.279Z,15.41
2022-10-12T01:49:22.586Z,16.75
2022-10-12T01:52:02.412Z,17.91
2022-10-12T01:54:54.788Z,19.02
2022-10-12T01:57:41.142Z,19.30
2022-10-12T02:00:14.377Z,19.63
2022-10-12T02:03:06.922Z,19.61
2022-10-12T02:05:43.438Z,18.15
2022-10-12T02:08:25.242Z,16.85
2022-10-12T02:11:16.206Z,16.06
2022-10-12T02:14:08.270Z,16.84
2022-10-12T02:16:42.863Z,18.04
2022-10-12T02:19:11.913Z,17.97
2022-10-12T02:21:40.269Z,18.22
2022-10-12T02:24:10.136Z,18.38
2022-10-12T02:26:41.505Z,18.06
2022-10-12T02:29:14.653Z,18.24
2022-10-12T02:31:57.443Z,17.65
2022-10-12T02:34:36.071Z,17.22
2022-10-12T02:37:06.335Z,16.15
2022-10-12T02:39:38.960Z,15.43
2022-10-12T02:42:10.204Z,14.93
2022-10-12T02:44:40.002Z,15.00
2022-10-12T02:47:09.271Z,16.02
2022-10-12T02:49:38.113Z,17.26
2022-10-12T02:52:06.650Z,18.42
2022-10-12T02:54:34.051Z,18.27
2022-10-12T02:57:01.654Z,18.32
2022-10-12T02:59:29.346Z,19.37
2022-10-12T03:01:56.720Z,19.29
2022-10-12T03:04:24.142Z,18.50
2022-10-12T03:06:51.736Z,18.65
2022-10-12T03:09:19.113Z,18.53
2022-10-12T03:11:46.547Z,18.79
2022-10-12T03:14:17.406Z,18.23
2022-10-12T03:16:46.623Z,18.00
2022-10-12T03:19:14.620Z,18.35
2022-10-12T03:21:41.966Z,18.47
2022-10-12T03:24:09.412Z,17.78
2022-10-12T03:26:37.026Z,15.78
2022-10-12T03:29:04.646Z,15.85
2022-10-12T03:31:32.049Z,14.92
2022-10-12T03:33:59.705Z,14.61
2022-10-12T03:36:27.030Z,14.15
2022-10-12T03:38:54.517Z,13.91
2022-10-12T03:41:22.332Z,13.61
2022-10-12T03:43:49.908Z,13.70
2022-10-12T03:46:17.259Z,13.66
2022-10-12T03:48:44.890Z,13.65
2022-10-12T03:51:12.238Z,13.49
2022-10-12T03:53:45.034Z,13.42
2022-10-12T03:56:13.370Z,13.91
2022-10-12T03:58:40.975Z,14.01
2022-10-12T04:01:08.420Z,14.51
2022-10-12T04:03:36.639Z,14.33
2022-10-12T04:06:04.117Z,15.07
2022-10-12T04:08:31.569Z,14.36
2022-10-12T04:10:59.170Z,14.97
2022-10-12T04:13:26.800Z,15.32
2022-10-12T04:15:54.134Z,15.80
2022-10-12T04:18:21.713Z,15.80
2022-10-12T04:20:49.299Z,14.83
2022-10-12T04:23:16.651Z,14.94
2022-10-12T04:25:44.303Z,15.77
2022-10-12T04:28:11.917Z,16.00
2022-10-12T04:30:39.678Z,15.27
2022-10-12T04:33:08.362Z,14.71
2022-10-12T04:35:35.952Z,15.09
2022-10-12T04:38:04.021Z,15.76
2022-10-12T04:40:32.171Z,15.92
2022-10-12T04:42:59.850Z,16.63
2022-10-12T04:45:27.576Z,16.30
2022-10-12T04:47:55.745Z,15.88
2022-10-12T04:50:28.956Z,17.16
2022-10-12T04:53:01.446Z,17.40
2022-10-12T04:55:29.368Z,17.84
2022-10-12T04:57:57.641Z,18.14
2022-10-12T05:00:25.503Z,17.61
2022-10-12T05:02:53.099Z,17.98
2022-10-12T05:05:20.531Z,17.19
2022-10-12T05:07:48.250Z,16.73
2022-10-12T05:10:15.853Z,17.36
2022-10-12T05:12:43.194Z,17.70
2022-10-12T05:15:11.447Z,18.01
2022-10-12T05:17:39.297Z,16.89
2022-10-12T05:20:08.057Z,17.55
2022-10-12T05:22:35.865Z,18.31
2022-10-12T05:25:04.066Z,18.18
2022-10-12T05:27:31.467Z,18.21
2022-10-12T05:29:59.113Z,17.72
2022-10-12T05:32:26.561Z,16.78
2022-10-12T05:34:55.150Z,17.08
2022-10-12T05:37:23.086Z,17.22
2022-10-12T05:39:51.732Z,16.73
2022-10-12T05:42:19.098Z,17.03
2022-10-12T05:44:46.714Z,17.32
2022-10-12T05:47:14.040Z,18.51
2022-10-12T05:49:41.401Z,18.37
2022-10-12T05:52:09.139Z,19.23
2022-10-12T05:54:36.525Z,18.48
2022-10-12T05:57:03.940Z,17.51
2022-10-12T05:59:31.534Z,17.55
2022-10-12T06:01:58.948Z,17.74
2022-10-12T06:04:26.614Z,17.81
2022-10-12T06:06:53.998Z,19.04
2022-10-12T06:09:21.344Z,19.14
2022-10-12T06:11:49.070Z,19.43
2022-10-12T06:14:16.421Z,20.76
2022-10-12T06:16:43.830Z,21.14
2022-10-12T06:19:12.025Z,21.04
2022-10-12T06:21:39.617Z,21.30
2022-10-12T06:24:07.181Z,21.30
2022-10-12T06:26:35.019Z,21.29
2022-10-12T06:29:02.568Z,20.93
2022-10-12T06:31:30.084Z,20.94
2022-10-12T06:33:57.765Z,21.49
2022-10-12T06:36:25.219Z,21.96
2022-10-12T06:38:52.598Z,21.00
2022-10-12T06:41:20.298Z,21.19
2022-10-12T06:43:47.673Z,21.10
2022-10-12T06:46:14.998Z,21.13
2022-10-12T06:48:42.673Z,21.18
2022-10-12T06:51:09.994Z,21.20
2022-10-12T06:53:37.314Z,21.48
2022-10-12T06:56:09.650Z,21.77
2022-10-12T06:58:37.013Z,21.58
2022-10-12T07:01:06.466Z,21.45
2022-10-12T07:03:34.265Z,22.02
2022-10-12T07:06:07.507Z,21.59
2022-10-12T07:08:35.154Z,21.82
2022-10-12T07:11:04.191Z,21.82
2022-10-12T07:13:32.095Z,21.86
2022-10-12T07:16:00.016Z,22.08
2022-10-12T07:18:27.590Z,22.30
2022-10-12T07:20:58.567Z,22.25
2022-10-12T07:23:27.108Z,22.53
2022-10-12T07:25:54.611Z,22.31
2022-10-12T07:28:22.246Z,22.89
2022-10-12T07:30:50.300Z,22.77
2022-10-12T07:33:17.637Z,22.80
2022-10-12T07:36:12.728Z,22.69
2022-10-12T07:38:44.709Z,22.56
2022-10-12T07:41:12.123Z,23.14
2022-10-12T07:43:39.466Z,22.87
2022-10-12T07:46:07.552Z,23.08
2022-10-12T07:48:35.087Z,23.27
2022-10-12T07:51:10.026Z,23.09
2022-10-12T07:53:39.097Z,23.53
2022-10-12T07:56:09.280Z,22.70
2022-10-12T07:58:37.131Z,23.05
2022-10-12T08:01:09.354Z,22.96
2022-10-12T08:03:37.119Z,23.33
2022-10-12T08:06:16.451Z,23.57
2022-10-12T08:08:44.501Z,23.81
2022-10-12T08:11:12.489Z,23.10
2022-10-12T08:13:40.372Z,23.15
2022-10-12T08:16:14.265Z,23.18
2022-10-12T08:18:41.885Z,23.74
2022-10-12T08:21:11.011Z,24.02
2022-10-12T08:23:38.492Z,24.39
2022-10-12T08:26:06.540Z,24.39
2022-10-12T08:28:35.735Z,24.99
2022-10-12T08:31:12.168Z,24.68
2022-10-12T08:33:39.890Z,24.37
2022-10-12T08:36:08.110Z,24.07
2022-10-12T08:38:38.971Z,24.32
2022-10-12T08:41:44.198Z,24.62
2022-10-12T08:44:33.058Z,23.88
2022-10-12T08:47:05.468Z,24.04
2022-10-12T08:49:33.647Z,24.26
2022-10-12T08:52:04.765Z,24.50
2022-10-12T08:54:39.315Z,24.60
2022-10-12T08:57:13.291Z,23.72
2022-10-12T08:59:40.616Z,24.06
2022-10-12T09:02:53.416Z,24.80
2022-10-12T09:05:31.671Z,25.36
2022-10-12T09:08:05.693Z,24.45
2022-10-12T09:10:47.475Z,23.58
2022-10-12T09:13:24.122Z,24.03
2022-10-12T09:16:04.627Z,24.75
2022-10-12T09:18:41.605Z,25.31
2022-10-12T09:21:13.836Z,25.31
2022-10-12T09:23:44.867Z,24.67
2022-10-12T09:26:35.831Z,24.18
2022-10-12T09:29:25.592Z,24.52
2022-10-12T09:32:17.050Z,25.36
2022-10-12T09:34:46.667Z,23.83
2022-10-12T09:37:19.202Z,24.56
2022-10-12T09:39:47.012Z,24.91
2022-10-12T09:42:14.409Z,25.76
2022-10-12T09:44:57.662Z,25.41
2022-10-12T09:47:31.426Z,25.29
2022-10-12T09:50:01.212Z,25.63
2022-10-12T09:52:44.086Z,25.39
2022-10-12T09:55:11.884Z,25.33
2022-10-12T09:57:41.444Z,25.05
2022-10-12T10:00:27.466Z,25.47
2022-10-12T10:02:55.690Z,24.76
2022-10-12T10:05:28.695Z,25.43
2022-10-12T10:08:20.268Z,25.22
2022-10-12T10:10:52.561Z,25.55
2022-10-12T10:13:22.005Z,25.61
2022-10-12T10:16:03.582Z,25.26
2022-10-12T10:19:03.085Z,25.96
2022-10-12T10:21:36.296Z,25.98
2022-10-12T10:24:07.079Z,25.94
2022-10-12T10:27:04.630Z,25.87
2022-10-12T10:29:32.110Z,25.91
2022-10-12T10:32:14.452Z,25.99
2022-10-12T10:34:42.578Z,26.86
2022-10-12T10:37:19.462Z,25.35
2022-10-12T10:39:53.499Z,25.78
2022-10-12T10:42:25.276Z,25.76
2022-10-12T10:44:58.206Z,25.99
2022-10-12T10:47:25.854Z,25.42
2022-10-12T10:50:01.537Z,25.69
2022-10-12T10:52:36.636Z,24.58
2022-10-12T10:55:22.465Z,26.02
2022-10-12T10:58:02.635Z,25.05
2022-10-12T11:00:40.909Z,25.42
2022-10-12T11:06:37.548Z,24.10
2022-10-12T11:09:09.943Z,24.88
2022-10-12T11:11:38.414Z,25.29
2022-10-12T11:14:18.875Z,26.16
2022-10-12T11:17:11.427Z,26.08
2022-10-12T11:19:45.917Z,26.51
2022-10-12T11:22:13.543Z,25.76
2022-10-12T11:24:44.574Z,25.92
2022-10-12T11:27:21.252Z,25.55
2022-10-12T11:30:02.980Z,23.99
2022-10-12T11:32:38.496Z,23.02
2022-10-12T11:35:07.532Z,23.39
2022-10-12T11:37:42.577Z,23.20
2022-10-12T11:40:23.575Z,24.25
2022-10-12T11:42:55.921Z,24.94
2022-10-12T11:45:24.904Z,25.80
2022-10-12T11:48:04.696Z,25.07
2022-10-12T11:50:36.624Z,26.07
2022-10-12T11:53:14.638Z,26.04
2022-10-12T11:56:14.807Z,25.91
2022-10-12T11:59:01.387Z,26.55
2022-10-12T12:01:40.006Z,25.14
2022-10-12T12:04:41.801Z,23.04
2022-10-12T12:07:41.040Z,23.05
2022-10-12T12:10:27.809Z,23.59
2022-10-12T12:13:11.812Z,24.89
2022-10-12T12:15:40.287Z,26.34
2022-10-12T12:18:21.115Z,26.15
2022-10-12T12:20:48.651Z,25.91
2022-10-12T12:23:35.297Z,26.04
2022-10-12T12:26:16.596Z,26.28
2022-10-12T12:29:09.857Z,25.88
2022-10-12T12:31:37.868Z,26.44
2022-10-12T12:34:16.244Z,27.21
2022-10-12T12:36:45.892Z,26.65
2022-10-12T12:39:32.218Z,26.86
2022-10-12T12:42:02.880Z,26.74
2022-10-12T12:44:43.479Z,26.57
2022-10-12T12:47:40.265Z,26.73
2022-10-12T12:50:01.178Z,27.53
2022-10-12T12:52:34.872Z,27.18
2022-10-12T12:55:14.425Z,27.01
2022-10-12T12:58:02.483Z,27.56
2022-10-12T13:03:34.506Z,27.17
2022-10-12T13:06:23.467Z,27.20
2022-10-12T13:09:06.544Z,27.00
2022-10-12T13:12:11.083Z,27.58
2022-10-12T13:14:53.742Z,27.11
2022-10-12T13:17:46.744Z,26.54
2022-10-12T13:20:20.493Z,26.95
2022-10-12T13:22:50.458Z,26.52
2022-10-12T13:25:27.017Z,26.36
2022-10-12T13:27:55.029Z,26.60
2022-10-12T13:30:31.946Z,26.48
2022-10-12T13:33:14.227Z,26.82
2022-10-12T13:36:05.667Z,27.25
2022-10-12T13:38:35.328Z,26.75
2022-10-12T13:41:12.313Z,26.64
2022-10-12T13:43:44.636Z,26.99
2022-10-12T13:46:14.177Z,26.62
2022-10-12T13:48:59.386Z,26.64
2022-10-12T13:51:30.432Z,26.59
2022-10-12T13:53:57.941Z,26.59
2022-10-12T13:56:29.250Z,26.45
2022-10-12T13:59:00.245Z,26.33
2022-10-12T14:01:27.949Z,26.46
2022-10-12T14:04:04.734Z,26.64
2022-10-12T14:06:35.099Z,26.81
2022-10-12T14:09:10.547Z,26.90
2022-10-12T14:11:38.439Z,26.88
2022-10-12T14:14:06.634Z,26.66
2022-10-12T14:16:34.121Z,26.78
2022-10-12T14:19:52.114Z,26.81
2022-10-12T14:22:25.411Z,27.12
2022-10-12T14:25:15.940Z,27.28
2022-10-12T14:27:43.718Z,26.90
2022-10-12T14:30:26.199Z,26.67
2022-10-12T14:32:59.535Z,26.45
2022-10-12T14:35:30.315Z,26.17
2022-10-12T14:37:58.093Z,26.20
2022-10-12T14:40:27.931Z,26.37
2022-10-12T14:43:14.510Z,26.33
2022-10-12T14:45:42.161Z,26.36
2022-10-12T14:48:14.535Z,26.06
2022-10-12T14:50:43.248Z,25.90
2022-10-12T14:53:13.475Z,25.74
2022-10-12T14:55:41.713Z,25.55
2022-10-12T14:58:14.953Z,25.86
2022-10-12T15:00:42.591Z,26.04
2022-10-12T15:03:10.310Z,25.86
2022-10-12T15:05:37.786Z,25.80
2022-10-12T15:08:09.041Z,26.08
2022-10-12T15:10:37.652Z,25.82
2022-10-12T15:13:05.079Z,25.61
2022-10-12T15:15:44.617Z,25.62
2022-10-12T15:18:12.988Z,25.54
2022-10-12T15:20:43.256Z,25.47
2022-10-12T15:23:15.111Z,25.35
2022-10-12T15:25:50.706Z,25.22
2022-10-12T15:28:18.576Z,24.93
2022-10-12T15:31:15.434Z,24.48
2022-10-12T15:33:34.305Z,24.73
2022-10-12T15:36:01.851Z,23.67
2022-10-12T15:38:29.245Z,23.32
2022-10-12T15:40:58.297Z,23.10
2022-10-12T15:43:26.116Z,22.74
2022-10-12T15:45:53.736Z,23.34
2022-10-12T15:48:21.336Z,23.37
2022-10-12T15:50:49.623Z,22.81
2022-10-12T15:53:21.021Z,23.06
2022-10-12T15:55:48.655Z,22.91
2022-10-12T15:58:16.427Z,22.49
2022-10-12T16:00:44.050Z,21.79
2022-10-12T16:03:19.190Z,21.84
2022-10-12T16:05:50.197Z,21.95
2022-10-12T16:08:17.805Z,22.13
2022-10-12T16:10:46.178Z,22.35
2022-10-12T16:13:14.336Z,22.56
2022-10-12T16:15:42.837Z,23.04
2022-10-12T16:18:10.793Z,22.67
2022-10-12T16:20:39.302Z,22.50
2022-10-12T16:23:11.594Z,22.40
2022-10-12T16:25:39.042Z,21.58
2022-10-12T16:28:06.646Z,21.89
2022-10-12T16:30:34.018Z,21.90
2022-10-12T16:33:01.841Z,22.58
2022-10-12T16:35:29.529Z,22.90
2022-10-12T16:37:56.870Z,23.08
2022-10-12T16:40:24.227Z,22.80
2022-10-12T16:42:55.761Z,23.08
2022-10-12T16:45:24.283Z,22.80
2022-10-12T16:47:52.005Z,22.31
2022-10-12T16:50:20.454Z,22.24
2022-10-12T16:52:47.891Z,22.58
2022-10-12T16:55:15.695Z,22.61
2022-10-12T16:57:43.095Z,22.43
2022-10-12T17:00:13.766Z,21.50
2022-10-12T17:02:41.492Z,21.05
2022-10-12T17:05:09.074Z,21.54
2022-10-12T17:07:36.440Z,20.20
2022-10-12T17:10:04.488Z,19.65
2022-10-12T17:12:31.848Z,19.98
2022-10-12T17:14:59.200Z,19.65
2022-10-12T17:17:26.895Z,19.84
2022-10-12T17:19:54.360Z,19.40
2022-10-12T17:22:21.759Z,19.17
2022-10-12T17:24:49.595Z,18.35
2022-10-12T17:27:17.420Z,17.46
2022-10-12T17:29:45.155Z,17.55
2022-10-12T17:32:13.360Z,18.14
2022-10-12T17:34:43.955Z,18.75
2022-10-12T17:37:13.726Z,19.02
2022-10-12T17:39:44.325Z,19.06
2022-10-12T17:42:12.663Z,19.29
2022-10-12T17:44:40.123Z,19.21
2022-10-12T17:47:07.861Z,19.21
2022-10-12T17:49:35.425Z,18.97
2022-10-12T17:52:02.858Z,18.77
2022-10-12T17:54:32.492Z,18.43
2022-10-12T17:57:00.090Z,18.41
2022-10-12T17:59:27.893Z,18.40
2022-10-12T18:01:55.955Z,18.29
2022-10-12T18:04:23.691Z,18.08
2022-10-12T18:06:51.202Z,17.95
2022-10-12T18:09:18.594Z,17.96
2022-10-12T18:11:47.045Z,17.47
2022-10-12T18:14:14.853Z,16.82
2022-10-12T18:16:42.335Z,16.51
2022-10-12T18:19:11.693Z,16.42
2022-10-12T18:21:39.597Z,16.38
2022-10-12T18:24:16.112Z,16.40
2022-10-12T18:26:46.152Z,16.43
2022-10-12T18:29:16.385Z,16.40
2022-10-12T18:31:44.572Z,16.37
2022-10-12T18:34:12.077Z,16.50
2022-10-12T18:36:43.027Z,16.71
2022-10-12T18:39:10.918Z,16.78
2022-10-12T18:41:38.452Z,17.23
2022-10-12T18:44:06.073Z,17.18
2022-10-12T18:46:35.205Z,17.19
2022-10-12T18:49:05.201Z,17.53
2022-10-12T18:51:35.449Z,17.23
2022-10-12T18:54:04.243Z,17.05
2022-10-12T18:56:32.978Z,16.91
2022-10-12T18:59:01.016Z,17.44
2022-10-12T19:01:30.970Z,17.32
2022-10-12T19:03:59.944Z,16.99
2022-10-12T19:06:31.195Z,16.95
2022-10-12T19:09:00.114Z,16.74
2022-10-12T19:11:29.420Z,16.33
2022-10-12T19:14:04.230Z,16.34
2022-10-12T19:16:37.193Z,15.88
2022-10-12T19:19:07.499Z,15.50
2022-10-12T19:21:35.868Z,16.02
2022-10-12T19:24:05.790Z,16.16
2022-10-12T19:26:34.089Z,15.95
2022-10-12T19:29:02.633Z,15.46
2022-10-12T19:31:38.568Z,15.01
2022-10-12T19:34:12.700Z,15.39
2022-10-12T19:36:41.102Z,15.87
2022-10-12T19:39:13.042Z,16.26
2022-10-12T19:41:40.510Z,16.81
2022-10-12T19:44:08.242Z,16.33
2022-10-12T19:46:36.136Z,16.44
2022-10-12T19:49:03.959Z,15.75
2022-10-12T19:51:33.182Z,16.16
2022-10-12T19:54:02.297Z,16.08
2022-10-12T19:56:30.233Z,15.97
2022-10-12T19:58:58.933Z,15.76
2022-10-12T20:01:38.287Z,17.23
2022-10-12T20:04:10.188Z,16.63
2022-10-12T20:06:38.352Z,16.96
2022-10-12T20:09:07.500Z,16.22
2022-10-12T20:11:35.942Z,15.85
2022-10-12T20:14:03.760Z,15.54
2022-10-12T20:16:35.026Z,15.41
2022-10-12T20:19:04.889Z,14.32
2022-10-12T20:21:32.827Z,14.61
2022-10-12T20:24:00.182Z,14.79
2022-10-12T20:26:27.609Z,14.78
2022-10-12T20:28:55.351Z,14.75
2022-10-12T20:31:27.542Z,14.54
2022-10-12T20:33:56.138Z,14.67
2022-10-12T20:36:26.326Z,14.74
2022-10-12T20:38:54.125Z,14.07
2022-10-12T20:41:22.136Z,13.90
2022-10-12T20:43:49.652Z,14.66
2022-10-12T20:46:17.864Z,15.32
2022-10-12T20:48:45.942Z,15.61
2022-10-12T20:51:25.119Z,15.84
2022-10-12T20:53:52.928Z,15.81
2022-10-12T20:56:40.537Z,15.43
2022-10-12T20:59:09.044Z,15.60
2022-10-12T21:01:36.529Z,15.53
2022-10-12T21:04:04.083Z,14.67
2022-10-12T21:06:32.103Z,14.97
2022-10-12T21:08:59.446Z,14.66
2022-10-12T21:11:26.963Z,14.25
2022-10-12T21:13:54.829Z,13.76
2022-10-12T21:16:22.200Z,13.65
2022-10-12T21:18:54.207Z,13.22
2022-10-12T21:21:22.463Z,13.25
2022-10-12T21:23:56.491Z,13.76
2022-10-12T21:26:26.304Z,13.80
2022-10-12T21:28:54.141Z,13.86
2022-10-12T21:31:22.076Z,14.08
2022-10-12T21:33:49.714Z,14.18
2022-10-12T21:36:22.647Z,14.50
2022-10-12T21:38:50.901Z,14.78
2022-10-12T21:41:23.115Z,13.85
2022-10-12T21:43:51.696Z,13.46
2022-10-12T21:46:24.377Z,13.88
2022-10-12T21:48:52.395Z,13.73
2022-10-12T21:51:21.480Z,13.81
2022-10-12T21:53:49.431Z,14.04
2022-10-12T21:56:18.128Z,14.51
2022-10-12T21:58:46.296Z,14.71
2022-10-12T22:01:24.651Z,14.31
2022-10-12T22:03:57.231Z,14.25
2022-10-12T22:06:26.680Z,14.14
2022-10-12T22:08:59.628Z,14.27
2022-10-12T22:11:28.556Z,14.31
2022-10-12T22:14:05.121Z,14.19
2022-10-12T22:16:32.609Z,13.72
2022-10-12T22:19:01.882Z,13.30
2022-10-12T22:21:33.137Z,13.53
2022-10-12T22:24:02.007Z,13.65
2022-10-12T22:26:29.566Z,13.87
2022-10-12T22:28:59.758Z,13.42
2022-10-12T22:31:27.884Z,13.13
2022-10-12T22:33:55.830Z,13.44
2022-10-12T22:36:23.168Z,13.52
2022-10-12T22:38:50.764Z,13.61
2022-10-12T22:41:23.012Z,13.85
2022-10-12T22:43:53.483Z,13.76
2022-10-12T22:46:22.767Z,13.45
2022-10-12T22:48:50.240Z,13.74
2022-10-12T22:51:22.124Z,14.14
2022-10-12T22:53:49.524Z,14.30
2022-10-12T22:56:18.259Z,13.60
2022-10-12T22:58:48.779Z,13.98
2022-10-12T23:01:17.434Z,13.76
2022-10-12T23:03:45.933Z,13.34
2022-10-12T23:06:18.252Z,13.40
2022-10-12T23:08:46.511Z,13.15
2022-10-12T23:11:19.263Z,13.51
2022-10-12T23:13:47.181Z,13.37
2022-10-12T23:16:17.089Z,13.08
2022-10-12T23:18:45.066Z,13.54
2022-10-12T23:21:15.112Z,13.69
2022-10-12T23:23:43.052Z,14.21
2022-10-12T23:26:15.970Z,14.25
2022-10-12T23:28:44.148Z,14.47
2022-10-12T23:31:15.326Z,14.54
2022-10-12T23:33:42.733Z,15.51
2022-10-12T23:36:12.946Z,16.67
2022-10-12T23:38:41.511Z,16.70
2022-10-12T23:41:09.645Z,16.78
2022-10-12T23:43:37.436Z,16.29
2022-10-12T23:46:05.582Z,15.72
2022-10-12T23:48:33.301Z,15.99
2022-10-12T23:51:01.401Z,16.86
2022-10-12T23:53:28.766Z,16.99
2022-10-12T23:55:56.146Z,16.48
2022-10-12T23:58:23.789Z,16.62
